Nearby METAR Reports

 

KIAD - Wash Dc/Dulles, Virginia, USA
Distance from station: ESE 7mi, 11km
Updated: Fri, 17-Aug-2018 12:52am EDT
Few Clouds
Few Clouds
 Wind from calm
Wind: Calm
Temperature: 75°F , 24°C
Dew Point: 73°F , 23°C
Humidity: 94%
Barometer: 30.11 inHg , 1019.6 hPa
Clouds: Few Clouds
Visibility: 10 miles , 16 km
Cloud details: Few Clouds 25000 ft
2018/08/17 04:52 KIAD 170452Z 00000KT 10SM FEW250 24/23 A3011 RMK AO2 SLP193 T02440233 403220194
KJYO - Leesburg/Godfrey, Virginia, USA
Distance from station: N 7mi, 12km
Updated: Fri, 17-Aug-2018 1:35am EDT
Clear
Clear
 Wind from SW
Wind: SW 3 mph , 6 km/h
Temperature: 73°F , 23°C
Dew Point: 72°F , 22°C
Humidity: 94%
Barometer: 30.11 inHg , 1019.6 hPa
Clouds: Clear
Visibility: 10 miles , 16 km
2018/08/17 05:35 KJYO 170535Z AUTO 23003KT 10SM CLR 23/22 A3011 RMK AO2
 
KHEF - Manassas Muni, Virginia, USA
Distance from station: S 17mi, 28km
Updated: Fri, 17-Aug-2018 12:56am EDT
Clear
Clear
 Wind from calm
Wind: Calm
Temperature: 73°F , 23°C
Dew Point: 73°F , 23°C
Humidity: 100%
Barometer: 30.11 inHg , 1019.6 hPa
Clouds: Clear
Visibility: 9 miles , 14 km
2018/08/17 04:56 KHEF 170456Z AUTO 00000KT 9SM CLR 23/23 A3011 RMK AO2 SLP204 T02330228 PNO $
KGAI - Gaithersburg, Maryland, USA
Distance from station: NE 26mi, 41km
Updated: Fri, 17-Aug-2018 12:56am EDT
Clear
Clear
 Wind from calm
Wind: Calm
Temperature: 75°F , 24°C
Dew Point: 73°F , 23°C
Humidity: 94%
Barometer: 30.13 inHg , 1020.3 hPa
Clouds: Clear
Visibility: 10 miles , 16 km
2018/08/17 04:56 KGAI 170456Z AUTO 00000KT 10SM CLR 24/23 A3013 RMK AO2 SLP222 T02440228 403330194
 
KDAA - Fort Belvoir/Dav, Virginia, USA
Distance from station: SE 27mi, 44km
Updated: Fri, 17-Aug-2018 12:56am EDT
Mist, Clear
Mist, Clear
 Wind from calm
Wind: Calm
Temperature: 75°F , 24°C
Barometer: 30.11 inHg , 1019.6 hPa
Summary: Mist
Clouds: Clear
Visibility: 6 miles , 10 km
2018/08/17 04:56 KDAA 170456Z AUTO 00000KT 6SM BR CLR 24/ A3011 RMK AO2 SLPNO 403300196 $
KHWY - Warrenton, Virginia, USA
Distance from station: SSW 27mi, 44km
Updated: Fri, 17-Aug-2018 1:35am EDT
Fog, Mostly cloudy
Fog, Mostly cloudy
 Wind from calm
Wind: Calm
Temperature: 72°F , 22°C
Dew Point: 68°F , 20°C
Humidity: 88%
Barometer: 30.10 inHg , 1019.3 hPa
Summary: Fog
Clouds: Mostly cloudy
Visibility: 1/2 mile , 0.8 km
Cloud details: Partly cloudy 300 ft
Mostly cloudy 11000 ft
2018/08/17 05:35 KHWY 170535Z AUTO 00000KT 1/2SM FG SCT003 BKN110 22/20 A3010 RMK AO2 T02180202
 
KDCA - Washington/Natl, Washington D.c., USA
Distance from station: ESE 30mi, 48km
Updated: Fri, 17-Aug-2018 12:52am EDT
Few Clouds
Few Clouds
 Wind from S
Wind: S 6 mph , 9 km/h
Temperature: 81°F , 27°C
Heat Index: 86°F , 30°C
Dew Point: 73°F , 23°C
Humidity: 79%
Barometer: 30.11 inHg , 1019.6 hPa
Clouds: Few Clouds
Visibility: 10 miles , 16 km
Cloud details: Few Clouds 25000 ft
2018/08/17 04:52 KDCA 170452Z 18005KT 10SM FEW250 27/23 A3011 RMK AO2 SLP197 T02670233 403220267
KFDK - Frederick, Maryland, USA
Distance from station: NNE 33mi, 53km
Updated: Fri, 17-Aug-2018 1:30am EDT
Clear
Clear
 Wind from SE
Wind: SE 3 mph , 6 km/h
Temperature: 75°F , 24°C
Dew Point: 75°F , 24°C
Humidity: 100%
Barometer: 30.12 inHg , 1020 hPa
Clouds: Clear
Visibility: 10 miles , 16 km
2018/08/17 05:30 KFDK 170530Z AUTO 14003KT 10SM CLR 24/24 A3012 RMK AO2 LTG DSNT W
 
KOKV - Winchester Rgnl, Virginia, USA
Distance from station: WNW 33mi, 54km
Updated: Fri, 17-Aug-2018 1:35am EDT
Clear
Clear
 Wind from calm
Wind: Calm
Temperature: 70°F , 21°C
Dew Point: 68°F , 20°C
Humidity: 94%
Barometer: 30.13 inHg , 1020.3 hPa
Clouds: Clear
Visibility: 10 miles , 16 km
2018/08/17 05:35 KOKV 170535Z AUTO 00000KT 10SM CLR 21/20 A3013 RMK AO2
KCJR - Culpeper, Virginia, USA
Distance from station: SSW 34mi, 54km
Updated: Fri, 17-Aug-2018 1:35am EDT
Mist, Clear
Mist, Clear
 Wind from calm
Wind: Calm
Temperature: 73°F , 23°C
Dew Point: 72°F , 22°C
Humidity: 94%
Barometer: 30.12 inHg , 1020 hPa
Summary: Mist
Clouds: Clear
Visibility: 2 miles , 3 km
2018/08/17 05:35 KCJR 170535Z AUTO 00000KT 2SM BR CLR 23/22 A3012 RMK AO2 T02250217
 
KCGS - College Park, Maryland, USA
Distance from station: E 35mi, 56km
Updated: Fri, 17-Aug-2018 1:34am EDT
Clear
Clear
 Wind from calm
Wind: Calm
Temperature: 73°F , 23°C
Dew Point: 72°F , 22°C
Humidity: 94%
Barometer: 30.09 inHg , 1019 hPa
Clouds: Clear
Visibility: 10 miles , 16 km
2018/08/17 05:34 KCGS 170534Z AUTO 00000KT 10SM CLR 23/22 A3009 RMK AO1 T02310220
KNYG - Quantico Mcaf, Virginia, USA
Distance from station: SSE 35mi, 57km
Updated: Fri, 17-Aug-2018 12:56am EDT
Clear
Clear
 
Temperature: 77°F , 25°C
Dew Point: 77°F , 25°C
Humidity: 100%
Barometer: 30.11 inHg , 1019.6 hPa
Clouds: Clear
Visibility: 9 miles , 14 km
2018/08/17 04:56 KNYG 170456Z AUTO 9SM CLR 25/25 A3011 RMK AO2 SLP197 T02500250 403220222 $
 
KFRR - Fort Royal, Virginia, USA
Distance from station: W 37mi, 59km
Updated: Fri, 17-Aug-2018 1:35am EDT
Clear
Clear
 Wind from calm
Wind: Calm
Temperature: 72°F , 22°C
Dew Point: 72°F , 22°C
Humidity: 100%
Barometer: 30.12 inHg , 1020 hPa
Clouds: Clear
Visibility: 10 miles , 16 km
2018/08/17 05:35 KFRR 170535Z AUTO 00000KT 10SM CLR 22/22 A3012 RMK AO1
KMRB - Martinsburg, West Virginia, USA
Distance from station: NW 38mi, 61km
Updated: Fri, 17-Aug-2018 12:53am EDT
Clear
Clear
 Wind from calm
Wind: Calm
Temperature: 72°F , 22°C
Dew Point: 66°F , 19°C
Humidity: 83%
Barometer: 30.11 inHg , 1019.6 hPa
Clouds: Clear
Visibility: 10 miles , 16 km
2018/08/17 04:53 KMRB 170453Z AUTO 00000KT 10SM CLR 22/19 A3011 RMK AO2 SLP189 T02170194 403110183
 
KADW - Andrews Afb, Maryland, USA
Distance from station: ESE 39mi, 63km
Updated: Fri, 17-Aug-2018 12:56am EDT
Clear
Clear
 Wind from S
Wind: S 6 mph , 9 km/h
Temperature: 75°F , 24°C
Dew Point: 72°F , 22°C
Humidity: 89%
Barometer: 30.11 inHg , 1019.6 hPa
Clouds: Clear
Visibility: 10 miles , 16 km
2018/08/17 04:56 KADW 170456Z AUTO 17005KT 10SM CLR 24/22 A3011 RMK AO2 SLPNO T02380224 403240199 $
KRMN - Stafford Regnl, Virginia, USA
Distance from station: S 39mi, 63km
Updated: Fri, 17-Aug-2018 1:35am EDT
Mist, Clear
Mist, Clear
 Wind from calm
Wind: Calm
Temperature: 72°F , 22°C
Dew Point: 72°F , 22°C
Humidity: 100%
Barometer: 30.14 inHg , 1020.7 hPa
Summary: Mist
Clouds: Clear
Visibility: 2 1/2 miles , 4 km
2018/08/17 05:35 KRMN 170535Z AUTO 00000KT 2 1/2SM BR CLR 22/22 A3014 RMK AO2 T02220222
 
KFME - Fort Meade, Maryland, USA
Distance from station: ENE 44mi, 70km
Updated: Fri, 17-Aug-2018 1:33am EDT
Clear
Clear
 Wind from calm
Wind: Calm
Temperature: 72°F , 22°C
Dew Point: 70°F , 21°C
Humidity: 94%
Barometer: 30.12 inHg , 1020 hPa
Clouds: Clear
Visibility: 4 miles , 6 km
2018/08/17 05:33 KFME 170533Z AUTO 00000KT 4SM CLR 22/21 A3012 RMK AO1
KRSP - Nsf Thurmont, Maryland, USA
Distance from station: N 48mi, 77km
Updated: Fri, 17-Aug-2018 12:54am EDT
Clear
Clear
 Wind from SW
Wind: SW 5 mph , 7 km/h
Temperature: 75°F , 24°C
Dew Point: 66°F , 19°C
Humidity: 74%
Barometer: 30.18 inHg , 1022 hPa
Clouds: Clear
Visibility: 10 miles , 16 km
2018/08/17 04:54 KRSP 170454Z AUTO 23004KT 10SM CLR 24/19 A3018 RMK AO2 SLP207 T02390189 402940194 $
 
KEZF - Fredericksb/Shan, Virginia, USA
Distance from station: S 48mi, 78km
Updated: Fri, 17-Aug-2018 1:35am EDT
Clear
Clear
 Wind from calm
Wind: Calm
Temperature: 75°F , 24°C
Dew Point: 75°F , 24°C
Humidity: 100%
Barometer: 30.09 inHg , 1019 hPa
Clouds: Clear
Visibility: 10 miles , 16 km
2018/08/17 05:35 KEZF 170535Z AUTO 00000KT 10SM CLR 24/24 A3009 RMK AO2 T02350235
KBWI - Balto/Wash Intl, Maryland, USA
Distance from station: ENE 49mi, 80km
Updated: Fri, 17-Aug-2018 12:54am EDT
Few Clouds
Few Clouds
 Wind from calm
Wind: Calm
Temperature: 77°F , 25°C
Dew Point: 73°F , 23°C
Humidity: 89%
Barometer: 30.10 inHg , 1019.3 hPa
Clouds: Few Clouds
Visibility: 10 miles , 16 km
Cloud details: Few Clouds 11000 ft
Few Clouds 25000 ft
2018/08/17 04:54 KBWI 170454Z 00000KT 10SM FEW110 FEW250 25/23 A3010 RMK AO2 SLP191 T02500228 403330200